sensor_id;sensor_type;location;lat;lon;timestamp;P1;durP1;ratioP1;P2;durP2;ratioP2
45642;SDS011;31358;46.008;11.144;2024-01-10T00:01:33;19.70;;;12.15;;
45642;SDS011;31358;46.008;11.144;2024-01-10T00:03:58;19.98;;;11.73;;
45642;SDS011;31358;46.008;11.144;2024-01-10T00:06:24;19.92;;;11.73;;
45642;SDS011;31358;46.008;11.144;2024-01-10T00:08:50;17.42;;;10.43;;
45642;SDS011;31358;46.008;11.144;2024-01-10T00:11:15;19.65;;;11.88;;
45642;SDS011;31358;46.008;11.144;2024-01-10T00:13:41;18.08;;;11.55;;
45642;SDS011;31358;46.008;11.144;2024-01-10T00:16:07;17.98;;;11.27;;
45642;SDS011;31358;46.008;11.144;2024-01-10T00:18:33;16.95;;;11.38;;
45642;SDS011;31358;46.008;11.144;2024-01-10T00:20:59;19.15;;;12.05;;
45642;SDS011;31358;46.008;11.144;2024-01-10T00:23:25;20.75;;;10.55;;
45642;SDS011;31358;46.008;11.144;2024-01-10T00:25:50;18.88;;;11.00;;
45642;SDS011;31358;46.008;11.144;2024-01-10T00:28:16;18.63;;;10.85;;
45642;SDS011;31358;46.008;11.144;2024-01-10T00:30:43;17.25;;;10.43;;
45642;SDS011;31358;46.008;11.144;2024-01-10T00:33:13;22.13;;;12.77;;
45642;SDS011;31358;46.008;11.144;2024-01-10T00:35:39;20.35;;;11.02;;
45642;SDS011;31358;46.008;11.144;2024-01-10T00:38:04;18.63;;;11.30;;
45642;SDS011;31358;46.008;11.144;2024-01-10T00:40:30;19.35;;;11.48;;
45642;SDS011;31358;46.008;11.144;2024-01-10T00:42:56;18.38;;;11.07;;
45642;SDS011;31358;46.008;11.144;2024-01-10T00:45:22;20.30;;;13.07;;
45642;SDS011;31358;46.008;11.144;2024-01-10T00:47:50;21.02;;;12.38;;
45642;SDS011;31358;46.008;11.144;2024-01-10T00:50:16;17.50;;;11.10;;
45642;SDS011;31358;46.008;11.144;2024-01-10T00:52:43;17.27;;;11.13;;
45642;SDS011;31358;46.008;11.144;2024-01-10T00:55:09;18.33;;;11.57;;
45642;SDS011;31358;46.008;11.144;2024-01-10T00:57:35;18.67;;;11.93;;
45642;SDS011;31358;46.008;11.144;2024-01-10T01:00:03;19.40;;;11.75;;
45642;SDS011;31358;46.008;11.144;2024-01-10T01:02:32;19.88;;;10.95;;
45642;SDS011;31358;46.008;11.144;2024-01-10T01:04:58;20.10;;;10.88;;
45642;SDS011;31358;46.008;11.144;2024-01-10T01:07:24;19.20;;;11.35;;
45642;SDS011;31358;46.008;11.144;2024-01-10T01:09:52;21.98;;;13.10;;
45642;SDS011;31358;46.008;11.144;2024-01-10T01:12:18;21.98;;;11.45;;
45642;SDS011;31358;46.008;11.144;2024-01-10T01:14:43;18.50;;;11.43;;
45642;SDS011;31358;46.008;11.144;2024-01-10T01:17:09;20.30;;;11.25;;
45642;SDS011;31358;46.008;11.144;2024-01-10T01:19:35;19.13;;;11.65;;
45642;SDS011;31358;46.008;11.144;2024-01-10T01:22:00;19.33;;;12.02;;
45642;SDS011;31358;46.008;11.144;2024-01-10T01:24:26;22.83;;;14.05;;
45642;SDS011;31358;46.008;11.144;2024-01-10T01:26:52;18.73;;;12.23;;
45642;SDS011;31358;46.008;11.144;2024-01-10T01:29:17;23.83;;;13.55;;
45642;SDS011;31358;46.008;11.144;2024-01-10T01:31:44;20.30;;;12.88;;
45642;SDS011;31358;46.008;11.144;2024-01-10T01:34:09;23.60;;;13.52;;
45642;SDS011;31358;46.008;11.144;2024-01-10T01:36:35;21.08;;;12.15;;
45642;SDS011;31358;46.008;11.144;2024-01-10T01:39:01;19.90;;;13.13;;
45642;SDS011;31358;46.008;11.144;2024-01-10T01:41:26;18.52;;;11.43;;
45642;SDS011;31358;46.008;11.144;2024-01-10T01:43:52;20.30;;;13.07;;
45642;SDS011;31358;46.008;11.144;2024-01-10T01:46:17;20.25;;;12.23;;
45642;SDS011;31358;46.008;11.144;2024-01-10T01:48:43;18.90;;;11.82;;
45642;SDS011;31358;46.008;11.144;2024-01-10T01:51:10;26.60;;;15.25;;
45642;SDS011;31358;46.008;11.144;2024-01-10T01:53:39;18.50;;;11.90;;
45642;SDS011;31358;46.008;11.144;2024-01-10T01:56:06;22.30;;;12.68;;
45642;SDS011;31358;46.008;11.144;2024-01-10T01:58:33;21.98;;;12.35;;
45642;SDS011;31358;46.008;11.144;2024-01-10T02:00:59;18.60;;;12.10;;
45642;SDS011;31358;46.008;11.144;2024-01-10T02:03:27;19.70;;;12.30;;
45642;SDS011;31358;46.008;11.144;2024-01-10T02:05:52;23.55;;;13.38;;
45642;SDS011;31358;46.008;11.144;2024-01-10T02:08:19;22.70;;;12.27;;
45642;SDS011;31358;46.008;11.144;2024-01-10T02:10:45;20.23;;;13.35;;
45642;SDS011;31358;46.008;11.144;2024-01-10T02:13:11;19.40;;;11.77;;
45642;SDS011;31358;46.008;11.144;2024-01-10T02:15:37;20.73;;;13.48;;
45642;SDS011;31358;46.008;11.144;2024-01-10T02:18:03;25.98;;;15.40;;
45642;SDS011;31358;46.008;11.144;2024-01-10T02:20:30;21.30;;;12.50;;
45642;SDS011;31358;46.008;11.144;2024-01-10T02:22:56;23.75;;;12.68;;
45642;SDS011;31358;46.008;11.144;2024-01-10T02:25:22;20.30;;;12.70;;
45642;SDS011;31358;46.008;11.144;2024-01-10T02:27:48;24.58;;;14.32;;
45642;SDS011;31358;46.008;11.144;2024-01-10T02:30:14;21.73;;;14.10;;
45642;SDS011;31358;46.008;11.144;2024-01-10T02:32:39;28.52;;;13.55;;
45642;SDS011;31358;46.008;11.144;2024-01-10T02:35:05;20.23;;;12.68;;
45642;SDS011;31358;46.008;11.144;2024-01-10T02:37:32;20.27;;;13.13;;
45642;SDS011;31358;46.008;11.144;2024-01-10T02:39:57;26.45;;;13.38;;
45642;SDS011;31358;46.008;11.144;2024-01-10T02:42:23;19.80;;;12.35;;
45642;SDS011;31358;46.008;11.144;2024-01-10T02:44:49;25.60;;;14.02;;
45642;SDS011;31358;46.008;11.144;2024-01-10T02:47:14;24.70;;;14.00;;
45642;SDS011;31358;46.008;11.144;2024-01-10T02:49:40;23.27;;;12.77;;
45642;SDS011;31358;46.008;11.144;2024-01-10T02:52:06;22.17;;;14.35;;
45642;SDS011;31358;46.008;11.144;2024-01-10T02:54:32;25.00;;;13.73;;
45642;SDS011;31358;46.008;11.144;2024-01-10T02:56:57;22.58;;;14.30;;
45642;SDS011;31358;46.008;11.144;2024-01-10T02:59:23;21.40;;;12.45;;
45642;SDS011;31358;46.008;11.144;2024-01-10T03:01:48;24.10;;;14.25;;
45642;SDS011;31358;46.008;11.144;2024-01-10T03:04:14;24.45;;;13.80;;
45642;SDS011;31358;46.008;11.144;2024-01-10T03:06:40;24.17;;;13.70;;
45642;SDS011;31358;46.008;11.144;2024-01-10T03:09:05;24.25;;;13.13;;
45642;SDS011;31358;46.008;11.144;2024-01-10T03:11:31;24.13;;;14.48;;
45642;SDS011;31358;46.008;11.144;2024-01-10T03:14:02;21.67;;;13.77;;
45642;SDS011;31358;46.008;11.144;2024-01-10T03:16:29;27.90;;;14.15;;
45642;SDS011;31358;46.008;11.144;2024-01-10T03:18:55;19.95;;;12.98;;
45642;SDS011;31358;46.008;11.144;2024-01-10T03:21:21;19.77;;;12.15;;
45642;SDS011;31358;46.008;11.144;2024-01-10T03:23:51;23.23;;;13.10;;
45642;SDS011;31358;46.008;11.144;2024-01-10T03:26:21;23.83;;;13.70;;
45642;SDS011;31358;46.008;11.144;2024-01-10T03:28:47;19.58;;;11.93;;
45642;SDS011;31358;46.008;11.144;2024-01-10T03:31:13;23.70;;;12.82;;
45642;SDS011;31358;46.008;11.144;2024-01-10T03:33:39;19.13;;;12.10;;
45642;SDS011;31358;46.008;11.144;2024-01-10T03:36:06;21.98;;;13.40;;
45642;SDS011;31358;46.008;11.144;2024-01-10T03:38:32;24.42;;;13.50;;
45642;SDS011;31358;46.008;11.144;2024-01-10T03:40:58;19.13;;;12.23;;
45642;SDS011;31358;46.008;11.144;2024-01-10T03:43:23;21.55;;;14.40;;
45642;SDS011;31358;46.008;11.144;2024-01-10T03:45:49;21.85;;;12.35;;
45642;SDS011;31358;46.008;11.144;2024-01-10T03:48:14;22.67;;;12.77;;
45642;SDS011;31358;46.008;11.144;2024-01-10T03:50:40;20.35;;;12.02;;
45642;SDS011;31358;46.008;11.144;2024-01-10T03:53:06;22.15;;;13.70;;
45642;SDS011;31358;46.008;11.144;2024-01-10T03:55:31;21.40;;;12.98;;
45642;SDS011;31358;46.008;11.144;2024-01-10T03:57:57;18.83;;;12.15;;
45642;SDS011;31358;46.008;11.144;2024-01-10T04:00:23;22.30;;;13.65;;
45642;SDS011;31358;46.008;11.144;2024-01-10T04:02:50;20.33;;;12.38;;
45642;SDS011;31358;46.008;11.144;2024-01-10T04:05:15;21.48;;;13.68;;
45642;SDS011;31358;46.008;11.144;2024-01-10T04:07:41;22.40;;;13.30;;
45642;SDS011;31358;46.008;11.144;2024-01-10T04:10:10;19.63;;;12.32;;
45642;SDS011;31358;46.008;11.144;2024-01-10T04:12:38;23.55;;;14.07;;
45642;SDS011;31358;46.008;11.144;2024-01-10T04:15:05;23.58;;;13.27;;
45642;SDS011;31358;46.008;11.144;2024-01-10T04:17:32;21.70;;;14.00;;
45642;SDS011;31358;46.008;11.144;2024-01-10T04:19:57;26.13;;;14.40;;
45642;SDS011;31358;46.008;11.144;2024-01-10T04:22:24;22.67;;;14.38;;
45642;SDS011;31358;46.008;11.144;2024-01-10T04:24:50;20.83;;;12.75;;
45642;SDS011;31358;46.008;11.144;2024-01-10T04:27:16;20.70;;;13.60;;
45642;SDS011;31358;46.008;11.144;2024-01-10T04:29:43;24.38;;;13.75;;
45642;SDS011;31358;46.008;11.144;2024-01-10T04:32:09;21.63;;;12.98;;
45642;SDS011;31358;46.008;11.144;2024-01-10T04:34:34;21.85;;;13.65;;
45642;SDS011;31358;46.008;11.144;2024-01-10T04:37:00;24.25;;;13.93;;
45642;SDS011;31358;46.008;11.144;2024-01-10T04:39:26;25.33;;;14.07;;
45642;SDS011;31358;46.008;11.144;2024-01-10T04:41:51;21.05;;;13.90;;
45642;SDS011;31358;46.008;11.144;2024-01-10T04:44:17;24.35;;;14.65;;
45642;SDS011;31358;46.008;11.144;2024-01-10T04:46:43;23.67;;;13.30;;
45642;SDS011;31358;46.008;11.144;2024-01-10T04:49:09;23.05;;;14.57;;
45642;SDS011;31358;46.008;11.144;2024-01-10T04:51:34;25.70;;;13.25;;
45642;SDS011;31358;46.008;11.144;2024-01-10T04:54:00;25.58;;;14.98;;
45642;SDS011;31358;46.008;11.144;2024-01-10T04:56:26;23.05;;;14.50;;
45642;SDS011;31358;46.008;11.144;2024-01-10T04:58:51;26.08;;;15.25;;
45642;SDS011;31358;46.008;11.144;2024-01-10T05:01:17;26.58;;;15.43;;
45642;SDS011;31358;46.008;11.144;2024-01-10T05:03:43;26.42;;;13.35;;
45642;SDS011;31358;46.008;11.144;2024-01-10T05:06:09;25.30;;;14.48;;
45642;SDS011;31358;46.008;11.144;2024-01-10T05:08:35;24.48;;;13.85;;
45642;SDS011;31358;46.008;11.144;2024-01-10T05:11:01;25.83;;;15.18;;
45642;SDS011;31358;46.008;11.144;2024-01-10T05:13:27;25.90;;;15.73;;
45642;SDS011;31358;46.008;11.144;2024-01-10T05:15:53;25.23;;;16.90;;
45642;SDS011;31358;46.008;11.144;2024-01-10T05:18:20;27.17;;;16.50;;
45642;SDS011;31358;46.008;11.144;2024-01-10T05:20:45;26.15;;;15.93;;
45642;SDS011;31358;46.008;11.144;2024-01-10T05:23:11;31.00;;;17.45;;
45642;SDS011;31358;46.008;11.144;2024-01-10T05:25:37;28.17;;;17.50;;
45642;SDS011;31358;46.008;11.144;2024-01-10T05:28:03;27.88;;;15.82;;
45642;SDS011;31358;46.008;11.144;2024-01-10T05:30:29;28.00;;;16.60;;
45642;SDS011;31358;46.008;11.144;2024-01-10T05:32:55;26.30;;;14.75;;
45642;SDS011;31358;46.008;11.144;2024-01-10T05:35:20;22.90;;;14.20;;
45642;SDS011;31358;46.008;11.144;2024-01-10T05:37:46;24.48;;;13.88;;
45642;SDS011;31358;46.008;11.144;2024-01-10T05:40:12;23.38;;;14.00;;
45642;SDS011;31358;46.008;11.144;2024-01-10T05:42:37;26.70;;;16.00;;
45642;SDS011;31358;46.008;11.144;2024-01-10T05:45:04;27.35;;;14.93;;
45642;SDS011;31358;46.008;11.144;2024-01-10T05:47:31;24.17;;;14.77;;
45642;SDS011;31358;46.008;11.144;2024-01-10T05:49:56;24.33;;;13.85;;
45642;SDS011;31358;46.008;11.144;2024-01-10T05:52:22;23.65;;;15.50;;
45642;SDS011;31358;46.008;11.144;2024-01-10T05:54:48;23.98;;;14.82;;
45642;SDS011;31358;46.008;11.144;2024-01-10T05:57:16;21.63;;;13.55;;
45642;SDS011;31358;46.008;11.144;2024-01-10T05:59:42;21.63;;;13.10;;
45642;SDS011;31358;46.008;11.144;2024-01-10T06:02:07;21.38;;;12.77;;
45642;SDS011;31358;46.008;11.144;2024-01-10T06:04:33;21.27;;;13.38;;
45642;SDS011;31358;46.008;11.144;2024-01-10T06:06:59;23.45;;;13.82;;
45642;SDS011;31358;46.008;11.144;2024-01-10T06:09:25;21.17;;;12.88;;
45642;SDS011;31358;46.008;11.144;2024-01-10T06:11:50;22.95;;;13.13;;
45642;SDS011;31358;46.008;11.144;2024-01-10T06:14:16;22.67;;;13.02;;
45642;SDS011;31358;46.008;11.144;2024-01-10T06:16:42;22.42;;;13.25;;
45642;SDS011;31358;46.008;11.144;2024-01-10T06:19:10;23.08;;;13.38;;
45642;SDS011;31358;46.008;11.144;2024-01-10T06:21:36;22.75;;;11.90;;
45642;SDS011;31358;46.008;11.144;2024-01-10T06:24:02;24.30;;;12.63;;
45642;SDS011;31358;46.008;11.144;2024-01-10T06:26:28;24.33;;;15.50;;
45642;SDS011;31358;46.008;11.144;2024-01-10T06:28:54;24.42;;;13.65;;
45642;SDS011;31358;46.008;11.144;2024-01-10T06:31:19;22.27;;;13.13;;
45642;SDS011;31358;46.008;11.144;2024-01-10T06:33:45;21.27;;;13.13;;
45642;SDS011;31358;46.008;11.144;2024-01-10T06:36:11;23.15;;;14.00;;
45642;SDS011;31358;46.008;11.144;2024-01-10T06:38:40;22.27;;;14.27;;
45642;SDS011;31358;46.008;11.144;2024-01-10T06:41:08;24.45;;;14.88;;
45642;SDS011;31358;46.008;11.144;2024-01-10T06:43:36;24.33;;;13.98;;
45642;SDS011;31358;46.008;11.144;2024-01-10T06:46:01;24.95;;;14.75;;
45642;SDS011;31358;46.008;11.144;2024-01-10T06:48:28;23.08;;;14.02;;
45642;SDS011;31358;46.008;11.144;2024-01-10T06:50:54;21.55;;;13.48;;
45642;SDS011;31358;46.008;11.144;2024-01-10T06:53:23;22.25;;;13.25;;
45642;SDS011;31358;46.008;11.144;2024-01-10T06:55:49;21.55;;;13.45;;
45642;SDS011;31358;46.008;11.144;2024-01-10T06:58:15;23.52;;;13.85;;
45642;SDS011;31358;46.008;11.144;2024-01-10T07:00:41;22.90;;;14.02;;
45642;SDS011;31358;46.008;11.144;2024-01-10T07:03:06;21.27;;;13.80;;
45642;SDS011;31358;46.008;11.144;2024-01-10T07:05:32;21.35;;;15.30;;
45642;SDS011;31358;46.008;11.144;2024-01-10T07:07:58;23.67;;;14.90;;
45642;SDS011;31358;46.008;11.144;2024-01-10T07:10:27;24.10;;;16.17;;
45642;SDS011;31358;46.008;11.144;2024-01-10T07:12:54;26.33;;;15.98;;
45642;SDS011;31358;46.008;11.144;2024-01-10T07:15:20;23.60;;;14.23;;
45642;SDS011;31358;46.008;11.144;2024-01-10T07:17:46;24.60;;;14.52;;
45642;SDS011;31358;46.008;11.144;2024-01-10T07:20:12;25.45;;;15.43;;
45642;SDS011;31358;46.008;11.144;2024-01-10T07:22:38;25.02;;;15.65;;
45642;SDS011;31358;46.008;11.144;2024-01-10T07:25:08;23.42;;;15.15;;
45642;SDS011;31358;46.008;11.144;2024-01-10T07:27:42;26.40;;;15.30;;
45642;SDS011;31358;46.008;11.144;2024-01-10T07:30:08;21.88;;;14.82;;
45642;SDS011;31358;46.008;11.144;2024-01-10T07:32:41;23.27;;;14.20;;
45642;SDS011;31358;46.008;11.144;2024-01-10T07:35:06;27.90;;;15.95;;
45642;SDS011;31358;46.008;11.144;2024-01-10T07:37:35;25.17;;;15.85;;
45642;SDS011;31358;46.008;11.144;2024-01-10T07:40:04;25.27;;;15.23;;
45642;SDS011;31358;46.008;11.144;2024-01-10T07:42:32;25.05;;;14.73;;
45642;SDS011;31358;46.008;11.144;2024-01-10T07:44:58;25.02;;;16.02;;
45642;SDS011;31358;46.008;11.144;2024-01-10T07:47:24;23.85;;;15.65;;
45642;SDS011;31358;46.008;11.144;2024-01-10T07:49:50;23.55;;;15.23;;
45642;SDS011;31358;46.008;11.144;2024-01-10T07:52:16;24.67;;;14.77;;
45642;SDS011;31358;46.008;11.144;2024-01-10T07:54:42;24.52;;;13.98;;
45642;SDS011;31358;46.008;11.144;2024-01-10T07:57:07;25.30;;;15.02;;
45642;SDS011;31358;46.008;11.144;2024-01-10T07:59:33;24.40;;;14.13;;
45642;SDS011;31358;46.008;11.144;2024-01-10T08:01:59;20.85;;;13.65;;
45642;SDS011;31358;46.008;11.144;2024-01-10T08:04:28;27.83;;;15.35;;
45642;SDS011;31358;46.008;11.144;2024-01-10T08:06:54;25.30;;;15.15;;
45642;SDS011;31358;46.008;11.144;2024-01-10T08:09:20;76.72;;;40.05;;
45642;SDS011;31358;46.008;11.144;2024-01-10T08:11:47;35.00;;;21.23;;
45642;SDS011;31358;46.008;11.144;2024-01-10T08:14:15;31.45;;;19.48;;
45642;SDS011;31358;46.008;11.144;2024-01-10T08:16:41;28.77;;;18.15;;
45642;SDS011;31358;46.008;11.144;2024-01-10T08:19:07;26.55;;;15.65;;
45642;SDS011;31358;46.008;11.144;2024-01-10T08:21:33;27.92;;;17.45;;
45642;SDS011;31358;46.008;11.144;2024-01-10T08:24:01;27.30;;;15.02;;
45642;SDS011;31358;46.008;11.144;2024-01-10T08:26:27;25.60;;;14.82;;
45642;SDS011;31358;46.008;11.144;2024-01-10T08:28:53;25.25;;;14.80;;
45642;SDS011;31358;46.008;11.144;2024-01-10T08:31:19;26.08;;;15.65;;
45642;SDS011;31358;46.008;11.144;2024-01-10T08:33:45;25.33;;;14.65;;
45642;SDS011;31358;46.008;11.144;2024-01-10T08:36:12;29.20;;;16.35;;
45642;SDS011;31358;46.008;11.144;2024-01-10T08:38:39;25.75;;;15.43;;
45642;SDS011;31358;46.008;11.144;2024-01-10T08:41:07;25.95;;;16.27;;
45642;SDS011;31358;46.008;11.144;2024-01-10T08:43:34;25.50;;;16.17;;
45642;SDS011;31358;46.008;11.144;2024-01-10T08:45:59;24.27;;;16.42;;
45642;SDS011;31358;46.008;11.144;2024-01-10T08:48:25;21.95;;;13.52;;
45642;SDS011;31358;46.008;11.144;2024-01-10T08:50:51;25.77;;;13.85;;
45642;SDS011;31358;46.008;11.144;2024-01-10T08:53:19;24.33;;;14.43;;
45642;SDS011;31358;46.008;11.144;2024-01-10T08:55:44;24.10;;;14.43;;
45642;SDS011;31358;46.008;11.144;2024-01-10T08:58:12;28.15;;;15.65;;
45642;SDS011;31358;46.008;11.144;2024-01-10T09:00:37;27.02;;;14.98;;
45642;SDS011;31358;46.008;11.144;2024-01-10T09:03:03;24.55;;;15.10;;
45642;SDS011;31358;46.008;11.144;2024-01-10T09:05:29;28.20;;;15.80;;
45642;SDS011;31358;46.008;11.144;2024-01-10T09:07:55;22.02;;;14.57;;
45642;SDS011;31358;46.008;11.144;2024-01-10T09:10:21;22.75;;;15.70;;
45642;SDS011;31358;46.008;11.144;2024-01-10T09:12:47;26.42;;;15.27;;
45642;SDS011;31358;46.008;11.144;2024-01-10T09:15:14;25.60;;;15.75;;
45642;SDS011;31358;46.008;11.144;2024-01-10T09:17:43;25.67;;;15.82;;
45642;SDS011;31358;46.008;11.144;2024-01-10T09:20:09;22.45;;;14.88;;
45642;SDS011;31358;46.008;11.144;2024-01-10T09:22:37;30.05;;;16.08;;
45642;SDS011;31358;46.008;11.144;2024-01-10T09:25:06;25.80;;;16.60;;
45642;SDS011;31358;46.008;11.144;2024-01-10T09:27:32;25.10;;;14.93;;
45642;SDS011;31358;46.008;11.144;2024-01-10T09:30:02;23.20;;;14.52;;
45642;SDS011;31358;46.008;11.144;2024-01-10T09:32:30;30.58;;;16.63;;
45642;SDS011;31358;46.008;11.144;2024-01-10T09:34:55;24.65;;;15.68;;
45642;SDS011;31358;46.008;11.144;2024-01-10T09:37:21;25.65;;;16.48;;
45642;SDS011;31358;46.008;11.144;2024-01-10T09:39:48;29.38;;;16.88;;
45642;SDS011;31358;46.008;11.144;2024-01-10T09:42:14;26.15;;;16.13;;
45642;SDS011;31358;46.008;11.144;2024-01-10T09:44:40;27.77;;;16.27;;
45642;SDS011;31358;46.008;11.144;2024-01-10T09:47:07;23.48;;;15.85;;
45642;SDS011;31358;46.008;11.144;2024-01-10T09:49:33;27.83;;;15.02;;
45642;SDS011;31358;46.008;11.144;2024-01-10T09:51:59;25.40;;;15.93;;
45642;SDS011;31358;46.008;11.144;2024-01-10T09:54:29;31.02;;;16.33;;
45642;SDS011;31358;46.008;11.144;2024-01-10T09:56:59;27.05;;;18.08;;
45642;SDS011;31358;46.008;11.144;2024-01-10T09:59:24;23.50;;;15.02;;
45642;SDS011;31358;46.008;11.144;2024-01-10T10:01:53;25.92;;;16.67;;
45642;SDS011;31358;46.008;11.144;2024-01-10T10:04:21;24.23;;;16.10;;
45642;SDS011;31358;46.008;11.144;2024-01-10T10:06:58;28.58;;;17.20;;
45642;SDS011;31358;46.008;11.144;2024-01-10T10:09:26;27.45;;;16.83;;
45642;SDS011;31358;46.008;11.144;2024-01-10T10:11:56;31.30;;;16.60;;
45642;SDS011;31358;46.008;11.144;2024-01-10T10:14:25;25.55;;;15.80;;
45642;SDS011;31358;46.008;11.144;2024-01-10T10:16:54;25.55;;;17.15;;
45642;SDS011;31358;46.008;11.144;2024-01-10T10:19:23;29.70;;;18.95;;
45642;SDS011;31358;46.008;11.144;2024-01-10T10:21:49;29.10;;;17.50;;
45642;SDS011;31358;46.008;11.144;2024-01-10T10:24:16;26.77;;;17.38;;
45642;SDS011;31358;46.008;11.144;2024-01-10T10:26:42;26.10;;;16.55;;
45642;SDS011;31358;46.008;11.144;2024-01-10T10:29:08;30.90;;;18.38;;
45642;SDS011;31358;46.008;11.144;2024-01-10T10:31:34;28.67;;;18.17;;
45642;SDS011;31358;46.008;11.144;2024-01-10T10:34:01;27.50;;;17.15;;
45642;SDS011;31358;46.008;11.144;2024-01-10T10:36:30;24.42;;;15.35;;
45642;SDS011;31358;46.008;11.144;2024-01-10T10:38:58;25.38;;;15.77;;
45642;SDS011;31358;46.008;11.144;2024-01-10T10:41:26;27.42;;;17.15;;
45642;SDS011;31358;46.008;11.144;2024-01-10T10:43:54;27.00;;;16.08;;
45642;SDS011;31358;46.008;11.144;2024-01-10T10:46:20;30.65;;;17.17;;
45642;SDS011;31358;46.008;11.144;2024-01-10T10:48:48;31.20;;;19.23;;
45642;SDS011;31358;46.008;11.144;2024-01-10T10:51:32;54.22;;;32.33;;
45642;SDS011;31358;46.008;11.144;2024-01-10T10:53:59;37.38;;;24.55;;
45642;SDS011;31358;46.008;11.144;2024-01-10T10:56:25;39.97;;;22.83;;
45642;SDS011;31358;46.008;11.144;2024-01-10T10:58:57;39.85;;;23.15;;
45642;SDS011;31358;46.008;11.144;2024-01-10T11:01:25;39.20;;;24.95;;
45642;SDS011;31358;46.008;11.144;2024-01-10T11:03:52;31.13;;;19.20;;
45642;SDS011;31358;46.008;11.144;2024-01-10T11:06:20;56.38;;;30.92;;
45642;SDS011;31358;46.008;11.144;2024-01-10T11:08:49;46.00;;;27.30;;
45642;SDS011;31358;46.008;11.144;2024-01-10T11:11:22;35.85;;;20.65;;
45642;SDS011;31358;46.008;11.144;2024-01-10T11:24:58;37.42;;;23.10;;
45642;SDS011;31358;46.008;11.144;2024-01-10T11:27:23;31.52;;;20.42;;
45642;SDS011;31358;46.008;11.144;2024-01-10T11:29:51;33.80;;;20.95;;
45642;SDS011;31358;46.008;11.144;2024-01-10T11:32:17;34.75;;;19.98;;
45642;SDS011;31358;46.008;11.144;2024-01-10T11:34:58;30.25;;;19.33;;
45642;SDS011;31358;46.008;11.144;2024-01-10T11:37:28;42.63;;;20.85;;
45642;SDS011;31358;46.008;11.144;2024-01-10T11:40:11;30.83;;;20.13;;
45642;SDS011;31358;46.008;11.144;2024-01-10T11:42:46;29.13;;;17.75;;
45642;SDS011;31358;46.008;11.144;2024-01-10T11:45:55;32.55;;;19.60;;
45642;SDS011;31358;46.008;11.144;2024-01-10T11:48:02;28.05;;;17.90;;
45642;SDS011;31358;46.008;11.144;2024-01-10T11:50:28;30.17;;;18.30;;
45642;SDS011;31358;46.008;11.144;2024-01-10T11:52:56;31.85;;;19.30;;
45642;SDS011;31358;46.008;11.144;2024-01-10T11:56:07;29.58;;;19.13;;
45642;SDS011;31358;46.008;11.144;2024-01-10T11:58:17;29.88;;;19.38;;
45642;SDS011;31358;46.008;11.144;2024-01-10T12:00:42;29.25;;;19.25;;
45642;SDS011;31358;46.008;11.144;2024-01-10T12:03:12;30.10;;;19.00;;
45642;SDS011;31358;46.008;11.144;2024-01-10T12:05:38;30.63;;;18.38;;
45642;SDS011;31358;46.008;11.144;2024-01-10T12:08:06;27.95;;;18.15;;
45642;SDS011;31358;46.008;11.144;2024-01-10T12:10:33;30.38;;;18.95;;
45642;SDS011;31358;46.008;11.144;2024-01-10T12:13:01;26.23;;;16.05;;
45642;SDS011;31358;46.008;11.144;2024-01-10T12:15:28;28.77;;;17.85;;
45642;SDS011;31358;46.008;11.144;2024-01-10T12:17:54;31.60;;;18.48;;
45642;SDS011;31358;46.008;11.144;2024-01-10T12:20:20;28.90;;;17.70;;
45642;SDS011;31358;46.008;11.144;2024-01-10T12:22:46;32.22;;;19.20;;
45642;SDS011;31358;46.008;11.144;2024-01-10T12:25:12;30.10;;;17.42;;
45642;SDS011;31358;46.008;11.144;2024-01-10T12:27:38;28.35;;;16.60;;
45642;SDS011;31358;46.008;11.144;2024-01-10T12:30:04;29.83;;;17.65;;
45642;SDS011;31358;46.008;11.144;2024-01-10T12:32:31;27.83;;;17.00;;
45642;SDS011;31358;46.008;11.144;2024-01-10T12:35:00;26.02;;;16.13;;
45642;SDS011;31358;46.008;11.144;2024-01-10T12:37:31;29.48;;;18.30;;
45642;SDS011;31358;46.008;11.144;2024-01-10T12:39:57;27.50;;;17.80;;
45642;SDS011;31358;46.008;11.144;2024-01-10T12:42:23;27.98;;;17.92;;
45642;SDS011;31358;46.008;11.144;2024-01-10T12:44:51;23.60;;;15.68;;
45642;SDS011;31358;46.008;11.144;2024-01-10T12:47:20;24.17;;;17.38;;
45642;SDS011;31358;46.008;11.144;2024-01-10T12:49:46;24.63;;;16.67;;
45642;SDS011;31358;46.008;11.144;2024-01-10T12:52:12;30.45;;;18.63;;
45642;SDS011;31358;46.008;11.144;2024-01-10T12:54:39;29.58;;;17.02;;
45642;SDS011;31358;46.008;11.144;2024-01-10T12:57:05;24.98;;;15.25;;
45642;SDS011;31358;46.008;11.144;2024-01-10T12:59:32;26.70;;;15.43;;
45642;SDS011;31358;46.008;11.144;2024-01-10T13:01:58;24.85;;;16.30;;
45642;SDS011;31358;46.008;11.144;2024-01-10T13:04:24;25.58;;;16.55;;
45642;SDS011;31358;46.008;11.144;2024-01-10T13:06:49;27.50;;;17.42;;
45642;SDS011;31358;46.008;11.144;2024-01-10T13:09:15;27.30;;;15.48;;
45642;SDS011;31358;46.008;11.144;2024-01-10T13:11:41;24.48;;;16.73;;
45642;SDS011;31358;46.008;11.144;2024-01-10T13:14:07;25.55;;;16.08;;
45642;SDS011;31358;46.008;11.144;2024-01-10T13:16:32;28.95;;;16.88;;
45642;SDS011;31358;46.008;11.144;2024-01-10T13:18:58;27.02;;;15.63;;
45642;SDS011;31358;46.008;11.144;2024-01-10T13:21:24;24.48;;;16.25;;
45642;SDS011;31358;46.008;11.144;2024-01-10T13:23:50;28.05;;;16.48;;
45642;SDS011;31358;46.008;11.144;2024-01-10T13:26:16;27.58;;;16.35;;
45642;SDS011;31358;46.008;11.144;2024-01-10T13:28:42;23.90;;;15.05;;
45642;SDS011;31358;46.008;11.144;2024-01-10T13:31:08;24.55;;;16.77;;
45642;SDS011;31358;46.008;11.144;2024-01-10T13:33:34;28.95;;;18.02;;
45642;SDS011;31358;46.008;11.144;2024-01-10T13:36:00;27.27;;;15.82;;
45642;SDS011;31358;46.008;11.144;2024-01-10T13:38:26;26.02;;;15.15;;
45642;SDS011;31358;46.008;11.144;2024-01-10T13:40:52;24.42;;;16.80;;
45642;SDS011;31358;46.008;11.144;2024-01-10T13:43:18;23.80;;;15.32;;
45642;SDS011;31358;46.008;11.144;2024-01-10T13:45:43;23.80;;;17.13;;
45642;SDS011;31358;46.008;11.144;2024-01-10T13:48:09;26.05;;;16.98;;
45642;SDS011;31358;46.008;11.144;2024-01-10T13:50:35;26.50;;;18.85;;
45642;SDS011;31358;46.008;11.144;2024-01-10T13:53:01;29.00;;;16.90;;
45642;SDS011;31358;46.008;11.144;2024-01-10T13:55:29;23.42;;;16.17;;
45642;SDS011;31358;46.008;11.144;2024-01-10T13:57:55;24.95;;;15.98;;
45642;SDS011;31358;46.008;11.144;2024-01-10T14:00:21;24.30;;;15.45;;
45642;SDS011;31358;46.008;11.144;2024-01-10T14:02:47;24.17;;;14.82;;
45642;SDS011;31358;46.008;11.144;2024-01-10T14:05:13;21.52;;;14.25;;
45642;SDS011;31358;46.008;11.144;2024-01-10T14:07:39;23.90;;;15.57;;
45642;SDS011;31358;46.008;11.144;2024-01-10T14:10:09;29.23;;;18.42;;
45642;SDS011;31358;46.008;11.144;2024-01-10T14:12:35;25.55;;;14.95;;
45642;SDS011;31358;46.008;11.144;2024-01-10T14:15:01;26.63;;;17.02;;
45642;SDS011;31358;46.008;11.144;2024-01-10T14:17:28;27.42;;;17.05;;